Time;durP1;ratioP1;P1;durP2;ratioP2;P2;SDS_P1;SDS_P2;PMS_P1;PMS_P2;Temp;Humidity;BMP_temperature;BMP_pressure;BME280_temperature;BME280_humidity;BME280_pressure;Samples;Min_cycle;Max_cycle;Signal;HPM_P1;HPM_P2
2022/06/26 00:01:32;;;;;;;38.90;30.77;;;;;;;;;;5014519;28;20184;-64
2022/06/26 00:03:58;;;;;;;43.25;31.17;;;;;;;;;;5014051;28;20176;-65
2022/06/26 00:06:24;;;;;;;42.70;30.83;;;;;;;;;;4996325;28;20196;-65
2022/06/26 00:08:51;;;;;;;46.17;30.67;;;;;;;;;;5012613;28;20286;-64
2022/06/26 00:11:17;;;;;;;41.85;30.77;;;;;;;;;;5013905;28;20177;-65
2022/06/26 00:13:43;;;;;;;42.50;30.00;;;;;;;;;;5013950;28;20203;-64
2022/06/26 00:16:09;;;;;;;42.85;30.75;;;;;;;;;;5013492;28;20201;-65
2022/06/26 00:18:35;;;;;;;40.10;30.13;;;;;;;;;;5013089;28;20318;-64
2022/06/26 00:21:01;;;;;;;40.38;29.85;;;;;;;;;;5013677;28;20632;-64
2022/06/26 00:23:27;;;;;;;42.22;29.75;;;;;;;;;;4995762;28;20184;-64
2022/06/26 00:25:53;;;;;;;39.42;29.20;;;;;;;;;;4995821;28;20184;-65
2022/06/26 00:28:20;;;;;;;42.55;28.73;;;;;;;;;;5010926;28;21813;-66
2022/06/26 00:30:46;;;;;;;40.15;29.95;;;;;;;;;;5013207;28;20180;-65
2022/06/26 00:33:12;;;;;;;40.58;28.17;;;;;;;;;;4995851;28;20211;-65
2022/06/26 00:35:39;;;;;;;38.25;27.85;;;;;;;;;;4977069;28;20582;-65
2022/06/26 00:38:05;;;;;;;43.15;28.33;;;;;;;;;;5012303;28;20220;-67
2022/06/26 00:40:31;;;;;;;42.42;29.00;;;;;;;;;;5013317;28;20283;-66
2022/06/26 00:42:57;;;;;;;38.53;29.08;;;;;;;;;;5013216;28;20184;-66
2022/06/26 00:45:23;;;;;;;40.33;28.70;;;;;;;;;;4995884;28;20196;-66
2022/06/26 00:47:50;;;;;;;42.33;29.48;;;;;;;;;;5013797;28;20215;-65
2022/06/26 00:50:16;;;;;;;39.88;29.27;;;;;;;;;;5011969;28;20187;-66
2022/06/26 00:52:42;;;;;;;40.20;29.45;;;;;;;;;;5013046;28;20173;-66
2022/06/26 00:55:10;;;;;;;42.50;28.75;;;;;;;;;;4995442;28;20621;-66
2022/06/26 00:57:36;;;;;;;43.65;29.65;;;;;;;;;;4995580;28;20211;-66
2022/06/26 01:00:04;;;;;;;41.63;29.70;;;;;;;;;;4995117;28;20184;-66
2022/06/26 01:02:30;;;;;;;41.58;30.48;;;;;;;;;;4995398;28;20188;-66
2022/06/26 01:04:56;;;;;;;43.33;30.52;;;;;;;;;;4995564;28;20187;-66
2022/06/26 01:07:23;;;;;;;39.90;30.42;;;;;;;;;;5012010;28;20180;-66
2022/06/26 01:09:49;;;;;;;44.53;31.70;;;;;;;;;;4995344;28;20236;-66
2022/06/26 01:12:15;;;;;;;44.97;32.47;;;;;;;;;;4993539;28;20200;-66
2022/06/26 01:14:42;;;;;;;48.67;33.53;;;;;;;;;;4995904;28;20262;-66
2022/06/26 01:17:08;;;;;;;53.60;34.50;;;;;;;;;;4995357;28;20204;-66
2022/06/26 01:19:34;;;;;;;52.55;34.53;;;;;;;;;;4995157;28;20561;-66
2022/06/26 01:22:01;;;;;;;52.95;35.03;;;;;;;;;;5011557;28;20279;-66
2022/06/26 01:24:27;;;;;;;56.03;36.83;;;;;;;;;;4995152;28;20192;-66
2022/06/26 01:26:53;;;;;;;57.33;35.05;;;;;;;;;;4995455;28;20192;-65
2022/06/26 01:29:19;;;;;;;57.85;35.53;;;;;;;;;;4995262;28;20177;-66
2022/06/26 01:31:45;;;;;;;65.20;35.95;;;;;;;;;;4993951;28;20200;-66
2022/06/26 01:34:12;;;;;;;60.38;36.67;;;;;;;;;;4994943;28;20180;-66
2022/06/26 01:36:39;;;;;;;60.83;38.42;;;;;;;;;;4994469;28;20579;-66
2022/06/26 01:39:06;;;;;;;62.55;37.10;;;;;;;;;;4994601;28;20229;-66
2022/06/26 01:41:32;;;;;;;62.13;35.90;;;;;;;;;;4994179;28;20716;-66
2022/06/26 01:43:58;;;;;;;64.35;38.05;;;;;;;;;;5013313;28;20180;-66
2022/06/26 01:46:25;;;;;;;64.15;35.90;;;;;;;;;;4995069;28;20220;-66
2022/06/26 01:48:52;;;;;;;62.60;36.28;;;;;;;;;;4979575;28;20276;-66
2022/06/26 01:51:18;;;;;;;62.35;37.78;;;;;;;;;;4993892;28;20184;-66
2022/06/26 01:53:45;;;;;;;61.72;37.13;;;;;;;;;;5012266;28;20184;-66
2022/06/26 01:56:12;;;;;;;58.42;35.72;;;;;;;;;;4994778;28;20185;-66
2022/06/26 01:58:44;;;;;;;60.75;36.22;;;;;;;;;;4996251;28;20188;-66
2022/06/26 02:01:16;;;;;;;57.78;35.53;;;;;;;;;;4993584;28;20204;-66
2022/06/26 02:03:42;;;;;;;59.90;36.53;;;;;;;;;;5012598;28;20208;-66
2022/06/26 02:06:10;;;;;;;58.90;37.40;;;;;;;;;;4993992;28;20180;-66
2022/06/26 02:08:36;;;;;;;61.65;34.22;;;;;;;;;;4994396;28;20414;-66
2022/06/26 02:13:49;;;;;;;56.25;35.08;;;;;;;;;;5012688;28;20180;-66
2022/06/26 02:16:22;;;;;;;54.47;34.22;;;;;;;;;;4994309;28;20177;-66
2022/06/26 02:18:50;;;;;;;57.50;34.42;;;;;;;;;;4995321;28;20176;-66
2022/06/26 02:21:17;;;;;;;58.28;35.25;;;;;;;;;;5014429;28;20207;-66
2022/06/26 02:23:44;;;;;;;56.10;34.50;;;;;;;;;;5015521;28;20597;-66
2022/06/26 02:26:12;;;;;;;54.35;34.58;;;;;;;;;;4979307;28;20188;-66
2022/06/26 02:28:39;;;;;;;57.97;34.15;;;;;;;;;;4992298;28;20610;-65
2022/06/26 02:31:05;;;;;;;55.42;34.22;;;;;;;;;;5015712;28;20204;-66
2022/06/26 02:33:35;;;;;;;60.28;34.88;;;;;;;;;;4996447;28;20263;-66
2022/06/26 02:36:01;;;;;;;51.83;33.28;;;;;;;;;;4997709;28;20185;-66
2022/06/26 02:38:27;;;;;;;52.38;31.08;;;;;;;;;;4997327;28;20177;-66
2022/06/26 02:40:54;;;;;;;57.17;33.08;;;;;;;;;;5015856;28;20185;-66
2022/06/26 02:43:23;;;;;;;52.45;33.28;;;;;;;;;;4997181;28;20675;-66
2022/06/26 02:45:49;;;;;;;53.33;33.13;;;;;;;;;;4997747;28;20180;-66
2022/06/26 02:48:16;;;;;;;47.33;31.17;;;;;;;;;;4983663;28;20185;-66
2022/06/26 02:50:42;;;;;;;52.90;32.03;;;;;;;;;;4998023;28;20200;-66
2022/06/26 02:53:09;;;;;;;52.08;32.53;;;;;;;;;;4994993;28;20180;-66
2022/06/26 02:55:36;;;;;;;53.13;32.10;;;;;;;;;;4997565;28;20641;-66
2022/06/26 02:58:03;;;;;;;52.20;31.77;;;;;;;;;;4997695;28;20217;-66
2022/06/26 03:00:37;;;;;;;50.40;30.98;;;;;;;;;;4997703;28;20184;-66
2022/06/26 03:03:04;;;;;;;54.22;32.03;;;;;;;;;;4996291;28;20180;-66
2022/06/26 03:05:30;;;;;;;54.03;31.92;;;;;;;;;;5015641;28;20186;-66
2022/06/26 03:07:59;;;;;;;51.22;31.60;;;;;;;;;;4995752;28;20663;-66
2022/06/26 03:10:25;;;;;;;50.35;31.23;;;;;;;;;;5015159;28;20193;-66
2022/06/26 03:12:51;;;;;;;55.05;31.00;;;;;;;;;;5014982;28;20628;-66
2022/06/26 03:15:18;;;;;;;52.95;30.63;;;;;;;;;;4996325;28;20195;-66
2022/06/26 03:17:44;;;;;;;47.78;29.52;;;;;;;;;;4997337;28;20698;-66
2022/06/26 03:20:12;;;;;;;60.42;31.80;;;;;;;;;;4997393;28;20550;-66
2022/06/26 03:22:38;;;;;;;54.75;30.63;;;;;;;;;;4997298;28;20177;-66
2022/06/26 03:25:06;;;;;;;49.10;30.38;;;;;;;;;;4992177;28;20276;-66
2022/06/26 03:27:32;;;;;;;53.20;29.55;;;;;;;;;;4997285;28;20268;-66
2022/06/26 03:29:58;;;;;;;47.30;28.70;;;;;;;;;;5014414;28;20640;-67
2022/06/26 03:32:25;;;;;;;46.67;27.75;;;;;;;;;;5014360;28;20176;-66
2022/06/26 03:35:02;;;;;;;47.35;28.48;;;;;;;;;;4995935;28;20648;-66
2022/06/26 03:37:28;;;;;;;45.50;27.63;;;;;;;;;;4996261;28;20213;-65
2022/06/26 03:39:54;;;;;;;48.55;26.83;;;;;;;;;;4997051;28;20648;-66
2022/06/26 03:42:21;;;;;;;41.25;26.58;;;;;;;;;;4997060;28;20192;-65
2022/06/26 03:44:47;;;;;;;44.08;26.73;;;;;;;;;;4995708;28;20188;-65
2022/06/26 03:47:16;;;;;;;43.65;26.98;;;;;;;;;;4996597;28;20203;-66
2022/06/26 03:49:46;;;;;;;48.45;27.17;;;;;;;;;;4995245;28;20227;-64
2022/06/26 03:52:12;;;;;;;47.17;27.40;;;;;;;;;;5014145;28;20177;-65
2022/06/26 03:54:38;;;;;;;42.55;26.63;;;;;;;;;;4995748;28;20184;-64
2022/06/26 03:57:05;;;;;;;42.47;25.83;;;;;;;;;;4997041;28;20220;-64
2022/06/26 03:59:33;;;;;;;43.58;25.23;;;;;;;;;;4996563;28;20200;-64
2022/06/26 04:02:01;;;;;;;44.33;25.77;;;;;;;;;;4996426;28;20211;-66
2022/06/26 04:04:29;;;;;;;45.75;25.98;;;;;;;;;;4979421;28;20657;-66
2022/06/26 04:06:56;;;;;;;44.97;25.10;;;;;;;;;;4995471;28;20199;-68
2022/06/26 04:09:33;;;;;;;42.50;24.58;;;;;;;;;;4996112;28;20254;-66
2022/06/26 04:12:00;;;;;;;41.55;24.52;;;;;;;;;;4996434;28;20188;-66
2022/06/26 04:14:31;;;;;;;43.65;24.40;;;;;;;;;;4995762;28;20207;-66
2022/06/26 04:16:57;;;;;;;40.53;23.42;;;;;;;;;;5014020;28;20314;-66
2022/06/26 04:19:25;;;;;;;41.20;24.92;;;;;;;;;;4995759;28;20184;-66
2022/06/26 04:21:51;;;;;;;41.10;23.35;;;;;;;;;;5013580;28;20181;-66
2022/06/26 04:24:18;;;;;;;41.28;24.17;;;;;;;;;;4994648;28;20189;-66
2022/06/26 04:26:44;;;;;;;47.58;25.23;;;;;;;;;;4995200;28;20319;-66
2022/06/26 04:29:11;;;;;;;42.75;24.15;;;;;;;;;;4980169;28;20714;-66
2022/06/26 04:31:38;;;;;;;42.42;24.90;;;;;;;;;;4995705;28;20185;-66
2022/06/26 04:34:04;;;;;;;50.20;24.25;;;;;;;;;;5012564;28;20346;-65
2022/06/26 04:36:31;;;;;;;40.58;24.20;;;;;;;;;;4995383;28;20299;-66
2022/06/26 04:38:57;;;;;;;39.88;23.48;;;;;;;;;;4995044;28;20652;-68
2022/06/26 04:41:38;;;;;;;40.70;23.65;;;;;;;;;;4996225;28;20184;-67
2022/06/26 04:44:07;;;;;;;42.97;23.67;;;;;;;;;;4993700;28;20644;-66
2022/06/26 04:46:33;;;;;;;42.05;22.80;;;;;;;;;;4987065;28;20323;-68
2022/06/26 04:48:59;;;;;;;37.80;23.20;;;;;;;;;;4989338;28;20216;-66
2022/06/26 04:51:26;;;;;;;37.70;22.85;;;;;;;;;;4992971;28;20177;-66
2022/06/26 04:53:55;;;;;;;37.33;22.33;;;;;;;;;;5006805;28;20196;-66
2022/06/26 04:56:21;;;;;;;40.70;22.50;;;;;;;;;;4995689;28;20250;-67
2022/06/26 04:58:58;;;;;;;42.63;23.05;;;;;;;;;;4994269;28;20184;-66
2022/06/26 05:01:26;;;;;;;37.47;22.05;;;;;;;;;;4994370;28;20188;-66
2022/06/26 05:04:18;;;;;;;37.17;22.02;;;;;;;;;;4989945;28;20184;-66
2022/06/26 05:07:05;;;;;;;39.47;20.60;;;;;;;;;;4994604;28;20188;-69
2022/06/26 05:09:35;;;;;;;34.88;19.77;;;;;;;;;;4993960;28;20271;-66
2022/06/26 05:12:01;;;;;;;34.05;19.63;;;;;;;;;;4976297;28;20189;-64
2022/06/26 05:14:36;;;;;;;37.10;19.60;;;;;;;;;;4995337;28;20238;-64
2022/06/26 05:17:22;;;;;;;30.85;18.40;;;;;;;;;;5012605;28;20220;-64
2022/06/26 05:19:48;;;;;;;29.42;17.67;;;;;;;;;;5011837;28;20184;-64
2022/06/26 05:22:14;;;;;;;29.58;17.30;;;;;;;;;;4995072;28;20254;-64
2022/06/26 05:24:42;;;;;;;30.15;17.40;;;;;;;;;;4994904;28;20269;-66
2022/06/26 05:27:09;;;;;;;28.05;15.75;;;;;;;;;;4994780;28;20219;-64
2022/06/26 05:29:35;;;;;;;30.42;15.75;;;;;;;;;;4993953;28;20191;-64
2022/06/26 05:32:01;;;;;;;29.70;15.98;;;;;;;;;;4995321;28;20212;-64
2022/06/26 05:34:27;;;;;;;27.33;16.08;;;;;;;;;;4994204;28;20212;-65
2022/06/26 05:36:53;;;;;;;28.00;15.45;;;;;;;;;;5012343;28;20212;-62
2022/06/26 05:39:20;;;;;;;26.05;15.05;;;;;;;;;;4992793;28;20189;-62
2022/06/26 05:41:47;;;;;;;27.38;15.43;;;;;;;;;;4995344;28;20621;-64
2022/06/26 05:44:13;;;;;;;29.90;14.50;;;;;;;;;;4995339;28;20181;-63
2022/06/26 05:46:46;;;;;;;26.85;14.18;;;;;;;;;;4996684;28;20196;-64
2022/06/26 05:49:37;;;;;;;23.60;14.65;;;;;;;;;;5012424;28;20200;-64
2022/06/26 05:52:33;;;;;;;26.17;13.50;;;;;;;;;;4989516;28;20196;-63
2022/06/26 05:55:33;;;;;;;23.05;13.18;;;;;;;;;;4991984;28;20188;-64
2022/06/26 05:58:18;;;;;;;21.80;13.13;;;;;;;;;;4998438;28;20243;-64
2022/06/26 06:01:00;;;;;;;25.02;13.25;;;;;;;;;;4997670;28;20198;-64
2022/06/26 06:03:26;;;;;;;17.92;12.90;;;;;;;;;;5016367;28;20216;-65
2022/06/26 06:05:56;;;;;;;21.38;13.98;;;;;;;;;;4998214;28;20199;-66
2022/06/26 06:08:22;;;;;;;23.17;14.02;;;;;;;;;;4996730;28;20192;-66
2022/06/26 06:10:48;;;;;;;17.80;14.18;;;;;;;;;;4996922;28;20181;-66
2022/06/26 06:13:14;;;;;;;22.25;14.55;;;;;;;;;;5015632;28;20283;-67
2022/06/26 06:15:42;;;;;;;22.27;14.73;;;;;;;;;;5016265;28;20192;-63
2022/06/26 06:18:10;;;;;;;22.55;14.80;;;;;;;;;;4998246;28;20625;-66
2022/06/26 06:20:37;;;;;;;23.65;14.63;;;;;;;;;;4993121;28;20200;-66
2022/06/26 06:23:05;;;;;;;24.67;15.93;;;;;;;;;;4998737;28;20185;-65
2022/06/26 06:25:31;;;;;;;20.67;14.20;;;;;;;;;;5015664;28;20212;-65
2022/06/26 06:28:02;;;;;;;18.38;13.80;;;;;;;;;;4997694;28;20184;-65
2022/06/26 06:30:31;;;;;;;18.08;13.25;;;;;;;;;;4998115;28;20208;-66
2022/06/26 06:32:58;;;;;;;17.50;12.63;;;;;;;;;;4997371;28;20239;-67
2022/06/26 06:35:32;;;;;;;20.33;12.65;;;;;;;;;;4998562;28;20200;-66
2022/06/26 06:37:58;;;;;;;18.52;12.55;;;;;;;;;;4988324;28;20217;-67
2022/06/26 06:40:24;;;;;;;16.80;12.20;;;;;;;;;;4994186;28;20188;-66
2022/06/26 06:42:54;;;;;;;19.60;12.65;;;;;;;;;;4997759;28;20192;-67
2022/06/26 06:45:25;;;;;;;20.10;12.80;;;;;;;;;;4998094;28;20184;-66
2022/06/26 06:47:55;;;;;;;18.90;12.13;;;;;;;;;;4996661;28;20189;-66
2022/06/26 06:50:44;;;;;;;15.27;10.70;;;;;;;;;;5015726;28;20552;-65
2022/06/26 06:53:10;;;;;;;19.83;11.30;;;;;;;;;;4980146;28;20213;-67
2022/06/26 06:55:36;;;;;;;16.42;10.27;;;;;;;;;;4997370;28;20667;-69
2022/06/26 06:58:03;;;;;;;16.27;10.57;;;;;;;;;;4995887;28;20212;-67
2022/06/26 07:00:29;;;;;;;14.38;10.23;;;;;;;;;;4981148;28;20653;-66
2022/06/26 07:02:59;;;;;;;13.98;10.13;;;;;;;;;;4997966;28;20189;-65
2022/06/26 07:05:26;;;;;;;14.88;9.05;;;;;;;;;;4996489;28;20211;-66
2022/06/26 07:07:52;;;;;;;10.23;8.77;;;;;;;;;;4979372;28;20219;-66
2022/06/26 07:10:18;;;;;;;13.73;8.35;;;;;;;;;;4997032;28;20235;-66
2022/06/26 07:12:52;;;;;;;13.95;9.15;;;;;;;;;;4981035;28;20284;-67
2022/06/26 07:15:18;;;;;;;18.10;9.15;;;;;;;;;;4997412;28;20187;-67
2022/06/26 07:17:44;;;;;;;12.85;7.95;;;;;;;;;;4996034;28;20208;-66
2022/06/26 07:20:11;;;;;;;12.93;8.02;;;;;;;;;;4997345;28;20196;-66
2022/06/26 07:22:37;;;;;;;13.18;7.57;;;;;;;;;;4997453;28;20191;-66
2022/06/26 07:25:14;;;;;;;11.10;5.95;;;;;;;;;;4996960;28;20267;-66
2022/06/26 07:27:45;;;;;;;10.45;5.72;;;;;;;;;;4988166;28;20644;-65
2022/06/26 07:30:12;;;;;;;10.32;5.72;;;;;;;;;;5013855;28;20189;-65
2022/06/26 07:32:54;;;;;;;9.50;5.40;;;;;;;;;;4997413;28;20659;-65
2022/06/26 07:35:21;;;;;;;13.43;6.30;;;;;;;;;;4996857;28;20242;-63
2022/06/26 07:37:47;;;;;;;13.05;6.78;;;;;;;;;;4995054;28;20221;-65
2022/06/26 07:40:13;;;;;;;11.95;6.00;;;;;;;;;;4996636;28;20187;-65
2022/06/26 07:42:41;;;;;;;12.20;6.03;;;;;;;;;;4980854;28;20195;-64
2022/06/26 07:45:07;;;;;;;11.57;5.78;;;;;;;;;;4996728;28;20177;-66
2022/06/26 07:47:48;;;;;;;14.68;6.55;;;;;;;;;;4989996;28;20640;-63
2022/06/26 07:50:16;;;;;;;10.23;6.20;;;;;;;;;;4995727;28;20283;-64
2022/06/26 07:52:42;;;;;;;17.23;6.03;;;;;;;;;;5004125;28;20200;-62
2022/06/26 07:55:08;;;;;;;10.15;6.00;;;;;;;;;;5014354;28;20276;-63
2022/06/26 07:57:34;;;;;;;10.43;5.72;;;;;;;;;;5012183;28;20224;-64
2022/06/26 08:00:01;;;;;;;11.63;5.53;;;;;;;;;;5013314;28;20189;-65
2022/06/26 08:02:28;;;;;;;8.65;5.50;;;;;;;;;;5007620;28;20193;-66
2022/06/26 08:04:54;;;;;;;9.63;5.45;;;;;;;;;;4976844;28;20605;-64
2022/06/26 08:07:20;;;;;;;8.38;5.70;;;;;;;;;;5011876;28;20268;-65
2022/06/26 08:09:46;;;;;;;10.00;6.50;;;;;;;;;;5013966;28;20232;-65
2022/06/26 08:12:13;;;;;;;14.13;6.50;;;;;;;;;;5010896;28;20204;-66
2022/06/26 08:14:39;;;;;;;9.38;6.20;;;;;;;;;;5014168;28;20180;-65
2022/06/26 08:17:05;;;;;;;14.90;6.53;;;;;;;;;;5013508;28;20209;-65
2022/06/26 08:19:31;;;;;;;11.32;6.22;;;;;;;;;;5013571;28;20554;-65
2022/06/26 08:22:00;;;;;;;12.40;5.80;;;;;;;;;;5010545;28;20204;-67
2022/06/26 08:24:26;;;;;;;13.10;5.20;;;;;;;;;;5013756;28;20191;-65
2022/06/26 08:26:53;;;;;;;11.90;5.43;;;;;;;;;;5002702;28;20185;-67
2022/06/26 08:29:20;;;;;;;8.27;5.10;;;;;;;;;;5012154;28;20302;-66
2022/06/26 08:31:46;;;;;;;7.93;5.50;;;;;;;;;;5013204;28;20177;-65
2022/06/26 08:34:12;;;;;;;8.95;5.43;;;;;;;;;;4996221;28;20172;-66
2022/06/26 08:36:42;;;;;;;10.88;5.40;;;;;;;;;;4980307;28;20239;-67
2022/06/26 08:39:08;;;;;;;9.00;5.10;;;;;;;;;;5013120;28;20558;-66
2022/06/26 08:41:39;;;;;;;9.98;5.28;;;;;;;;;;5012362;28;20202;-66
2022/06/26 08:44:05;;;;;;;7.68;4.93;;;;;;;;;;4996293;28;20215;-66
2022/06/26 08:46:33;;;;;;;8.30;5.07;;;;;;;;;;5013064;28;20172;-66
2022/06/26 08:49:02;;;;;;;9.63;5.00;;;;;;;;;;4996178;28;20172;-67
2022/06/26 08:51:28;;;;;;;11.70;4.68;;;;;;;;;;5012281;28;20184;-65
2022/06/26 08:53:55;;;;;;;7.90;4.50;;;;;;;;;;4996631;28;20191;-65
2022/06/26 08:56:21;;;;;;;7.97;4.38;;;;;;;;;;5013391;28;20181;-66
2022/06/26 08:58:47;;;;;;;9.32;4.55;;;;;;;;;;5013373;28;20189;-68
2022/06/26 09:01:14;;;;;;;6.47;4.60;;;;;;;;;;5010702;28;20714;-67
2022/06/26 09:03:40;;;;;;;10.45;4.55;;;;;;;;;;4996016;28;20554;-67
2022/06/26 09:06:06;;;;;;;5.47;3.80;;;;;;;;;;5013150;28;20172;-68
2022/06/26 09:08:42;;;;;;;7.07;3.70;;;;;;;;;;4994320;28;20577;-66
2022/06/26 09:11:08;;;;;;;7.45;3.65;;;;;;;;;;5013352;28;20175;-68
2022/06/26 09:13:38;;;;;;;10.43;3.55;;;;;;;;;;4995490;28;20176;-66
2022/06/26 09:16:04;;;;;;;6.45;3.53;;;;;;;;;;5013342;28;20243;-66
2022/06/26 09:18:34;;;;;;;7.20;3.58;;;;;;;;;;4994883;28;20327;-66
2022/06/26 09:21:00;;;;;;;7.78;3.85;;;;;;;;;;5012241;28;20263;-67
2022/06/26 09:23:26;;;;;;;6.20;3.72;;;;;;;;;;5012957;28;20235;-66
2022/06/26 09:25:52;;;;;;;5.82;3.45;;;;;;;;;;5012557;28;20181;-66
2022/06/26 09:28:20;;;;;;;8.55;3.55;;;;;;;;;;5012917;28;20554;-67
2022/06/26 09:30:46;;;;;;;6.30;3.40;;;;;;;;;;4998689;28;20185;-66
2022/06/26 09:33:12;;;;;;;9.23;3.70;;;;;;;;;;5016799;28;20272;-64
2022/06/26 09:35:38;;;;;;;11.50;3.78;;;;;;;;;;5017002;28;20227;-65
2022/06/26 09:38:04;;;;;;;8.45;3.90;;;;;;;;;;4998775;28;20756;-66
2022/06/26 09:40:30;;;;;;;14.10;4.00;;;;;;;;;;5016190;28;20229;-66
2022/06/26 09:42:57;;;;;;;9.45;4.03;;;;;;;;;;5016860;28;20250;-69
2022/06/26 09:45:23;;;;;;;8.57;4.38;;;;;;;;;;5016896;28;20181;-64
2022/06/26 09:47:49;;;;;;;7.70;4.15;;;;;;;;;;4996558;28;20197;-66
2022/06/26 09:50:15;;;;;;;6.47;4.32;;;;;;;;;;4999270;28;20278;-66
2022/06/26 09:52:43;;;;;;;8.10;4.43;;;;;;;;;;5008035;28;20204;-67
2022/06/26 09:55:10;;;;;;;10.23;4.57;;;;;;;;;;5005323;28;20181;-64
2022/06/26 09:57:36;;;;;;;7.88;5.05;;;;;;;;;;5011126;28;20217;-64
2022/06/26 10:00:04;;;;;;;7.75;4.72;;;;;;;;;;5016040;28;20197;-64
2022/06/26 10:08:10;;;;;;;8.10;4.45;;;;;;;;;;5015063;28;20203;-66
2022/06/26 10:10:37;;;;;;;9.45;4.70;;;;;;;;;;5016541;28;20272;-66
2022/06/26 10:13:07;;;;;;;11.13;5.20;;;;;;;;;;5015370;28;20516;-67
2022/06/26 10:15:41;;;;;;;9.25;5.20;;;;;;;;;;5014489;28;20177;-67
2022/06/26 10:18:31;;;;;;;7.80;5.35;;;;;;;;;;4998080;28;20711;-67
2022/06/26 10:20:58;;;;;;;8.40;5.07;;;;;;;;;;4997078;28;20184;-67
2022/06/26 10:23:32;;;;;;;9.10;5.05;;;;;;;;;;4983158;28;20231;-66
2022/06/26 10:25:58;;;;;;;13.00;5.32;;;;;;;;;;4997714;28;20192;-71
2022/06/26 10:28:24;;;;;;;8.48;4.97;;;;;;;;;;5015882;28;20191;-65
2022/06/26 10:30:50;;;;;;;8.23;5.05;;;;;;;;;;4997709;28;20184;-66
2022/06/26 10:33:19;;;;;;;9.05;5.00;;;;;;;;;;5014388;28;20272;-64
2022/06/26 10:35:46;;;;;;;7.57;5.18;;;;;;;;;;5016159;28;20172;-64
2022/06/26 10:38:18;;;;;;;7.90;4.43;;;;;;;;;;5015389;28;20243;-65
2022/06/26 10:43:50;;;;;;;8.35;3.95;;;;;;;;;;5015161;28;20172;-65
2022/06/26 10:46:20;;;;;;;6.28;4.20;;;;;;;;;;4996410;28;20837;-64
2022/06/26 10:48:51;;;;;;;6.57;3.90;;;;;;;;;;4996569;28;20170;-64
2022/06/26 10:51:23;;;;;;;10.57;3.83;;;;;;;;;;4981217;28;20641;-65
2022/06/26 10:53:50;;;;;;;7.55;3.53;;;;;;;;;;5013566;28;20593;-65
2022/06/26 10:56:16;;;;;;;7.28;4.13;;;;;;;;;;5014696;28;20185;-65
2022/06/26 10:58:46;;;;;;;8.77;4.40;;;;;;;;;;5015520;28;20579;-65
2022/06/26 11:01:13;;;;;;;7.55;4.30;;;;;;;;;;5015605;28;20181;-66
2022/06/26 11:03:39;;;;;;;6.15;3.33;;;;;;;;;;5014532;28;20652;-65
2022/06/26 11:06:13;;;;;;;10.63;4.28;;;;;;;;;;5013861;28;20208;-65
2022/06/26 11:08:40;;;;;;;11.15;4.47;;;;;;;;;;5014941;28;20224;-65
2022/06/26 11:11:09;;;;;;;6.50;4.00;;;;;;;;;;5015398;28;20184;-64
2022/06/26 11:13:37;;;;;;;8.98;4.00;;;;;;;;;;5014340;28;20522;-65
2022/06/26 11:16:04;;;;;;;7.07;3.53;;;;;;;;;;5015305;28;20199;-64
2022/06/26 11:18:34;;;;;;;5.32;3.63;;;;;;;;;;5015308;28;20299;-64
2022/06/26 11:21:01;;;;;;;6.53;3.65;;;;;;;;;;5015014;28;20596;-64
2022/06/26 11:23:28;;;;;;;6.72;4.05;;;;;;;;;;5013538;28;20189;-64
2022/06/26 11:25:56;;;;;;;11.45;4.03;;;;;;;;;;5015118;28;20690;-64
2022/06/26 11:28:29;;;;;;;11.02;4.47;;;;;;;;;;5014962;28;20188;-64
2022/06/26 11:30:55;;;;;;;7.28;3.70;;;;;;;;;;5014944;28;20184;-64
2022/06/26 11:33:28;;;;;;;7.90;4.38;;;;;;;;;;5013595;28;20185;-66
2022/06/26 11:35:55;;;;;;;9.68;4.32;;;;;;;;;;5015537;28;20624;-65
2022/06/26 11:38:22;;;;;;;10.18;4.05;;;;;;;;;;5014271;28;20216;-65
2022/06/26 11:40:49;;;;;;;5.90;3.50;;;;;;;;;;5014918;28;20184;-64
2022/06/26 11:43:16;;;;;;;7.32;4.00;;;;;;;;;;5013414;28;20220;-66
2022/06/26 11:45:43;;;;;;;10.27;4.18;;;;;;;;;;5014889;28;20168;-65
2022/06/26 11:48:16;;;;;;;9.90;4.18;;;;;;;;;;5013730;28;20169;-64
2022/06/26 11:50:42;;;;;;;11.98;4.18;;;;;;;;;;5014579;28;20276;-62
2022/06/26 11:53:09;;;;;;;6.40;3.80;;;;;;;;;;4995621;28;20275;-62
2022/06/26 11:55:44;;;;;;;9.55;3.95;;;;;;;;;;5014970;28;20339;-63
2022/06/26 11:58:11;;;;;;;7.47;3.70;;;;;;;;;;5014376;28;20215;-62
2022/06/26 12:00:37;;;;;;;8.60;3.60;;;;;;;;;;5014489;28;20181;-62
2022/06/26 12:03:04;;;;;;;7.05;3.25;;;;;;;;;;5013293;28;20180;-63
2022/06/26 12:05:30;;;;;;;6.30;2.90;;;;;;;;;;4996790;28;20188;-63
2022/06/26 12:07:57;;;;;;;4.80;2.75;;;;;;;;;;5013264;28;20227;-65
2022/06/26 12:10:27;;;;;;;9.27;3.05;;;;;;;;;;5013983;28;20224;-63
2022/06/26 12:12:53;;;;;;;8.02;2.85;;;;;;;;;;5012370;28;20180;-65
2022/06/26 12:15:20;;;;;;;6.55;2.75;;;;;;;;;;5014311;28;20188;-63
2022/06/26 12:17:54;;;;;;;6.47;2.92;;;;;;;;;;5014019;28;20586;-63
2022/06/26 12:20:20;;;;;;;6.57;2.88;;;;;;;;;;5013903;28;20187;-65
2022/06/26 12:22:50;;;;;;;7.03;2.58;;;;;;;;;;5012100;28;20197;-63
2022/06/26 12:25:33;;;;;;;10.90;3.03;;;;;;;;;;5011566;28;20263;-61
2022/06/26 12:28:00;;;;;;;8.13;2.70;;;;;;;;;;5013872;28;20235;-63
2022/06/26 12:30:36;;;;;;;4.72;2.40;;;;;;;;;;5013907;28;20223;-62
2022/06/26 12:33:05;;;;;;;6.10;2.40;;;;;;;;;;5014098;28;20215;-63
2022/06/26 12:35:31;;;;;;;9.77;3.00;;;;;;;;;;5011139;28;20215;-64
2022/06/26 12:37:59;;;;;;;7.68;3.13;;;;;;;;;;5013042;28;20207;-65
2022/06/26 12:40:25;;;;;;;6.45;3.03;;;;;;;;;;5013879;28;20196;-65
2022/06/26 12:42:51;;;;;;;8.60;2.92;;;;;;;;;;5012101;28;20195;-63
2022/06/26 12:45:18;;;;;;;7.68;2.85;;;;;;;;;;5013771;28;20172;-63
2022/06/26 12:47:44;;;;;;;6.25;2.97;;;;;;;;;;4993084;28;20568;-65
2022/06/26 12:50:13;;;;;;;6.88;3.20;;;;;;;;;;5010694;28;20191;-65
2022/06/26 12:52:39;;;;;;;5.45;2.78;;;;;;;;;;4993971;28;20278;-64
2022/06/26 12:55:06;;;;;;;6.15;2.72;;;;;;;;;;5013610;28;20180;-65
2022/06/26 12:57:32;;;;;;;5.82;3.13;;;;;;;;;;4995449;28;20220;-66
2022/06/26 12:59:58;;;;;;;7.10;3.20;;;;;;;;;;5013131;28;20187;-67
2022/06/26 13:02:25;;;;;;;4.32;3.00;;;;;;;;;;5012110;28;20188;-66
2022/06/26 13:04:51;;;;;;;8.98;3.97;;;;;;;;;;5012226;28;20195;-65
2022/06/26 13:07:18;;;;;;;9.07;4.15;;;;;;;;;;4995928;28;20231;-65
2022/06/26 13:09:45;;;;;;;9.77;4.22;;;;;;;;;;5012081;28;20216;-65
2022/06/26 13:12:11;;;;;;;10.15;3.40;;;;;;;;;;5013428;28;20309;-64
2022/06/26 13:14:37;;;;;;;10.57;3.60;;;;;;;;;;5013378;28;20231;-64
2022/06/26 13:17:03;;;;;;;29.95;5.25;;;;;;;;;;5013086;28;20223;-63
2022/06/26 13:19:29;;;;;;;8.32;4.80;;;;;;;;;;5011303;28;20184;-64
2022/06/26 13:21:55;;;;;;;10.48;4.55;;;;;;;;;;5012072;28;20195;-65
2022/06/26 13:24:21;;;;;;;6.40;4.30;;;;;;;;;;5013142;28;20184;-64
2022/06/26 13:26:49;;;;;;;8.73;4.97;;;;;;;;;;5013097;28;20188;-63
2022/06/26 13:29:15;;;;;;;8.30;4.97;;;;;;;;;;5012896;28;20181;-63
2022/06/26 13:31:42;;;;;;;8.13;5.05;;;;;;;;;;4994354;28;20653;-64
2022/06/26 13:34:08;;;;;;;7.18;4.78;;;;;;;;;;5013250;28;20275;-62
2022/06/26 13:36:34;;;;;;;10.35;5.07;;;;;;;;;;4994970;28;20181;-63
2022/06/26 13:39:00;;;;;;;11.10;5.80;;;;;;;;;;5011958;28;20551;-72
2022/06/26 13:41:27;;;;;;;8.90;4.82;;;;;;;;;;5012681;28;20536;-63
2022/06/26 13:43:53;;;;;;;7.63;4.65;;;;;;;;;;5013069;28;20211;-62
2022/06/26 13:46:19;;;;;;;9.35;4.40;;;;;;;;;;5012875;28;20636;-66
2022/06/26 13:48:45;;;;;;;8.23;5.00;;;;;;;;;;5012653;28;20349;-61
2022/06/26 13:51:11;;;;;;;7.55;4.85;;;;;;;;;;5012721;28;20185;-62
2022/06/26 13:53:37;;;;;;;7.82;5.18;;;;;;;;;;5013257;28;20239;-64
2022/06/26 13:56:03;;;;;;;9.90;5.68;;;;;;;;;;5012913;28;20583;-64
2022/06/26 13:58:30;;;;;;;10.02;5.65;;;;;;;;;;5010922;28;20212;-64
2022/06/26 14:00:56;;;;;;;10.23;6.00;;;;;;;;;;4995524;28;20556;-64
2022/06/26 14:03:23;;;;;;;8.88;6.43;;;;;;;;;;4995042;28;20185;-63
2022/06/26 14:05:49;;;;;;;12.38;6.57;;;;;;;;;;5011368;28;20884;-64
2022/06/26 14:08:15;;;;;;;9.98;6.18;;;;;;;;;;4999098;28;20184;-64
2022/06/26 14:10:41;;;;;;;8.80;6.15;;;;;;;;;;5012848;28;20224;-64
2022/06/26 14:13:08;;;;;;;7.90;5.90;;;;;;;;;;5012214;28;20722;-65
2022/06/26 14:15:34;;;;;;;8.88;6.30;;;;;;;;;;4996969;28;20192;-64
2022/06/26 14:18:00;;;;;;;12.60;6.03;;;;;;;;;;5014971;28;20303;-65
2022/06/26 14:20:26;;;;;;;9.18;6.05;;;;;;;;;;5015582;28;20192;-64
2022/06/26 14:25:55;;;;;;;8.63;5.43;;;;;;;;;;5016292;28;20259;-64
2022/06/26 14:28:22;;;;;;;9.27;5.25;;;;;;;;;;5014940;28;20196;-63
2022/06/26 14:30:48;;;;;;;9.40;5.70;;;;;;;;;;4998480;28;20234;-63
2022/06/26 14:33:16;;;;;;;10.82;5.70;;;;;;;;;;4998595;28;20169;-63
2022/06/26 14:35:43;;;;;;;10.77;5.30;;;;;;;;;;4998435;28;20177;-64
2022/06/26 14:38:09;;;;;;;7.82;4.97;;;;;;;;;;5013230;28;20208;-65
2022/06/26 14:40:35;;;;;;;10.55;4.80;;;;;;;;;;4998482;28;20188;-64
2022/06/26 14:43:01;;;;;;;8.75;5.03;;;;;;;;;;5015160;28;20185;-66
2022/06/26 14:45:27;;;;;;;9.95;4.78;;;;;;;;;;5014508;28;20184;-64
2022/06/26 14:47:53;;;;;;;10.88;5.55;;;;;;;;;;5015964;28;20172;-64